createdAt,value
2022-09-21T00:01:22.386Z,100.00
2022-09-21T00:03:53.881Z,100.00
2022-09-21T00:06:22.975Z,100.00
2022-09-21T00:08:51.118Z,100.00
2022-09-21T00:11:21.074Z,100.00
2022-09-21T00:13:48.697Z,100.00
2022-09-21T00:16:17.071Z,100.00
2022-09-21T00:18:46.006Z,100.00
2022-09-21T00:21:15.748Z,100.00
2022-09-21T00:23:44.343Z,100.00
2022-09-21T00:26:14.364Z,100.00
2022-09-21T00:28:42.624Z,100.00
2022-09-21T00:31:12.336Z,100.00
2022-09-21T00:33:40.839Z,100.00
2022-09-21T00:36:11.455Z,100.00
2022-09-21T00:38:39.487Z,100.00
2022-09-21T00:41:08.996Z,100.00
2022-09-21T00:43:38.620Z,100.00
2022-09-21T00:46:14.030Z,100.00
2022-09-21T00:48:42.090Z,100.00
2022-09-21T00:51:11.435Z,100.00
2022-09-21T00:53:39.771Z,100.00
2022-09-21T00:56:10.452Z,100.00
2022-09-21T00:58:43.836Z,100.00
2022-09-21T01:01:12.987Z,100.00
2022-09-21T01:03:40.635Z,100.00
2022-09-21T01:06:08.215Z,100.00
2022-09-21T01:08:37.753Z,100.00
2022-09-21T01:11:28.098Z,100.00
2022-09-21T01:14:12.646Z,100.00
2022-09-21T01:16:46.359Z,100.00
2022-09-21T01:19:32.709Z,100.00
2022-09-21T01:22:08.326Z,100.00
2022-09-21T01:24:49.655Z,100.00
2022-09-21T01:27:36.038Z,100.00
2022-09-21T01:30:08.364Z,100.00
2022-09-21T01:32:39.616Z,100.00
2022-09-21T01:35:11.784Z,100.00
2022-09-21T01:37:43.879Z,100.00
2022-09-21T01:40:16.538Z,100.00
2022-09-21T01:42:45.911Z,100.00
2022-09-21T01:45:17.238Z,100.00
2022-09-21T01:47:48.463Z,100.00
2022-09-21T01:50:18.016Z,100.00
2022-09-21T01:52:53.143Z,100.00
2022-09-21T01:55:28.420Z,100.00
2022-09-21T01:58:01.011Z,100.00
2022-09-21T02:00:30.877Z,100.00
2022-09-21T02:03:03.111Z,100.00
2022-09-21T02:05:31.122Z,100.00
2022-09-21T02:07:59.604Z,100.00
2022-09-21T02:10:33.180Z,100.00
2022-09-21T02:13:05.580Z,100.00
2022-09-21T02:15:48.252Z,100.00
2022-09-21T02:18:22.799Z,100.00
2022-09-21T02:20:57.047Z,100.00
2022-09-21T02:23:29.040Z,100.00
2022-09-21T02:26:04.171Z,100.00
2022-09-21T02:28:44.346Z,100.00
2022-09-21T02:31:19.241Z,100.00
2022-09-21T02:33:59.740Z,100.00
2022-09-21T02:36:32.546Z,100.00
2022-09-21T02:39:06.212Z,100.00
2022-09-21T02:41:39.696Z,100.00
2022-09-21T02:44:12.788Z,100.00
2022-09-21T02:46:46.677Z,100.00
2022-09-21T02:49:20.773Z,100.00
2022-09-21T02:51:52.832Z,100.00
2022-09-21T02:54:24.927Z,100.00
2022-09-21T02:56:53.953Z,100.00
2022-09-21T02:59:21.626Z,100.00
2022-09-21T03:01:50.482Z,100.00
2022-09-21T03:04:18.547Z,100.00
2022-09-21T03:06:46.001Z,100.00
2022-09-21T03:09:13.487Z,100.00
2022-09-21T03:11:42.354Z,100.00
2022-09-21T03:14:10.046Z,100.00
2022-09-21T03:16:37.915Z,100.00
2022-09-21T03:19:06.800Z,100.00
2022-09-21T03:21:34.272Z,100.00
2022-09-21T03:24:01.895Z,100.00
2022-09-21T03:26:29.688Z,100.00
2022-09-21T03:28:57.396Z,100.00
2022-09-21T03:31:25.032Z,100.00
2022-09-21T03:33:52.626Z,100.00
2022-09-21T03:36:21.883Z,100.00
2022-09-21T03:38:49.924Z,100.00
2022-09-21T03:41:18.093Z,100.00
2022-09-21T03:43:45.568Z,100.00
2022-09-21T03:46:13.151Z,100.00
2022-09-21T03:48:42.354Z,100.00
2022-09-21T03:51:09.888Z,100.00
2022-09-21T03:53:38.710Z,100.00
2022-09-21T03:56:06.411Z,100.00
2022-09-21T03:58:33.891Z,100.00
2022-09-21T04:01:02.627Z,100.00
2022-09-21T04:03:30.475Z,100.00
2022-09-21T04:05:58.002Z,100.00
2022-09-21T04:08:25.474Z,100.00
2022-09-21T04:10:56.234Z,100.00
2022-09-21T04:13:24.726Z,100.00
2022-09-21T04:15:52.311Z,100.00
2022-09-21T04:18:20.159Z,100.00
2022-09-21T04:20:47.754Z,100.00
2022-09-21T04:23:15.220Z,100.00
2022-09-21T04:25:42.706Z,100.00
2022-09-21T04:28:11.552Z,100.00
2022-09-21T04:30:39.040Z,100.00
2022-09-21T04:33:06.582Z,100.00
2022-09-21T04:35:34.142Z,100.00
2022-09-21T04:38:01.847Z,100.00
2022-09-21T04:40:29.361Z,100.00
2022-09-21T04:42:56.863Z,100.00
2022-09-21T04:45:25.757Z,100.00
2022-09-21T04:47:53.226Z,100.00
2022-09-21T04:50:20.734Z,100.00
2022-09-21T04:52:48.643Z,100.00
2022-09-21T04:55:16.859Z,100.00
2022-09-21T04:57:44.331Z,100.00
2022-09-21T05:00:12.775Z,100.00
2022-09-21T05:02:41.581Z,100.00
2022-09-21T05:05:09.449Z,100.00
2022-09-21T05:07:36.920Z,100.00
2022-09-21T05:10:03.820Z,100.00
2022-09-21T05:12:31.513Z,100.00
2022-09-21T05:14:58.998Z,100.00
2022-09-21T05:17:26.631Z,100.00
2022-09-21T05:19:55.525Z,100.00
2022-09-21T05:22:23.315Z,100.00
2022-09-21T05:24:50.801Z,100.00
2022-09-21T05:27:18.266Z,100.00
2022-09-21T05:29:46.324Z,100.00
2022-09-21T05:32:19.879Z,100.00
2022-09-21T05:34:58.908Z,100.00
2022-09-21T05:37:44.242Z,100.00
2022-09-21T05:40:13.772Z,100.00
2022-09-21T05:42:42.210Z,100.00
2022-09-21T05:45:15.212Z,100.00
2022-09-21T05:47:51.736Z,100.00
2022-09-21T05:50:34.362Z,100.00
2022-09-21T05:53:12.608Z,100.00
2022-09-21T05:55:52.670Z,100.00
2022-09-21T05:58:28.069Z,100.00
2022-09-21T06:01:07.541Z,100.00
2022-09-21T06:03:36.184Z,100.00
2022-09-21T06:06:05.312Z,100.00
2022-09-21T06:08:32.812Z,100.00
2022-09-21T06:11:00.452Z,97.43
2022-09-21T06:13:28.296Z,85.58
2022-09-21T06:15:55.719Z,81.26
2022-09-21T06:18:23.156Z,69.89
2022-09-21T06:20:50.664Z,61.26
2022-09-21T06:23:19.445Z,69.52
2022-09-21T06:25:56.050Z,68.20
2022-09-21T06:28:26.518Z,61.35
2022-09-21T06:30:55.046Z,62.37
2022-09-21T06:33:23.560Z,60.13
2022-09-21T06:35:55.327Z,60.71
2022-09-21T06:38:25.624Z,53.58
2022-09-21T06:40:54.008Z,48.52
2022-09-21T06:43:21.715Z,48.46
2022-09-21T06:45:55.140Z,45.81
2022-09-21T06:48:23.695Z,41.58
2022-09-21T06:50:51.616Z,44.78
2022-09-21T06:53:19.130Z,43.56
2022-09-21T06:55:47.897Z,46.28
2022-09-21T06:58:15.438Z,46.56
2022-09-21T07:00:42.906Z,47.38
2022-09-21T07:03:12.001Z,44.56
2022-09-21T07:05:39.505Z,46.77
2022-09-21T07:10:04.895Z,46.34
2022-09-21T07:10:58.854Z,47.54
2022-09-21T07:13:26.496Z,49.62
2022-09-21T07:15:53.991Z,57.96
2022-09-21T07:18:21.807Z,58.59
2022-09-21T07:20:49.508Z,68.31
2022-09-21T07:23:19.168Z,64.53
2022-09-21T07:25:49.104Z,60.20
2022-09-21T07:28:18.199Z,61.99
2022-09-21T07:30:45.776Z,59.92
2022-09-21T07:33:13.239Z,62.41
2022-09-21T07:35:40.673Z,62.94
2022-09-21T07:38:11.382Z,67.09
2022-09-21T07:40:38.843Z,70.73
2022-09-21T07:43:06.450Z,61.64
2022-09-21T07:45:35.264Z,57.24
2022-09-21T07:48:05.905Z,59.72
2022-09-21T07:50:34.598Z,56.57
2022-09-21T07:53:02.419Z,55.62
2022-09-21T07:55:31.248Z,54.05
2022-09-21T07:58:16.404Z,57.04
2022-09-21T08:00:45.247Z,55.34
2022-09-21T08:03:12.900Z,53.26
2022-09-21T08:05:40.352Z,54.65
2022-09-21T08:08:08.102Z,58.80
2022-09-21T08:10:35.981Z,59.30
2022-09-21T08:13:03.539Z,58.43
2022-09-21T08:15:48.962Z,59.47
2022-09-21T08:18:18.813Z,62.97
2022-09-21T08:20:54.415Z,59.69
2022-09-21T08:23:21.913Z,57.97
2022-09-21T08:25:49.371Z,55.37
2022-09-21T08:28:18.438Z,53.56
2022-09-21T08:30:45.902Z,53.78
2022-09-21T08:33:13.508Z,50.88
2022-09-21T08:35:42.276Z,50.14
2022-09-21T08:38:10.027Z,51.06
2022-09-21T08:40:41.699Z,50.11
2022-09-21T08:43:13.194Z,50.65
2022-09-21T08:45:43.241Z,50.28
2022-09-21T08:48:16.267Z,49.93
2022-09-21T08:50:49.338Z,45.82
2022-09-21T08:53:20.548Z,45.32
2022-09-21T08:55:48.324Z,44.54
2022-09-21T08:58:23.763Z,44.28
2022-09-21T09:00:58.120Z,44.73
2022-09-21T09:03:47.749Z,45.42
2022-09-21T09:06:26.870Z,45.25
2022-09-21T09:09:25.301Z,44.17
2022-09-21T09:12:10.828Z,41.84
2022-09-21T09:14:55.074Z,44.25
2022-09-21T09:17:39.859Z,43.84
2022-09-21T09:20:14.198Z,45.89
2022-09-21T09:22:47.287Z,43.73
2022-09-21T09:25:21.705Z,44.11
2022-09-21T09:27:54.220Z,44.86
2022-09-21T09:30:24.685Z,47.29
2022-09-21T09:32:58.705Z,48.83
2022-09-21T09:35:29.664Z,50.33
2022-09-21T09:38:05.949Z,53.04
2022-09-21T09:40:52.735Z,49.47
2022-09-21T09:43:32.616Z,48.07
2022-09-21T09:46:12.707Z,46.92
2022-09-21T09:49:01.999Z,47.24
2022-09-21T09:51:29.496Z,46.92
2022-09-21T09:54:00.965Z,49.02
2022-09-21T09:56:28.550Z,49.87
2022-09-21T09:58:59.794Z,52.47
2022-09-21T10:01:43.849Z,47.04
2022-09-21T10:04:13.404Z,44.78
2022-09-21T10:06:46.049Z,45.96
2022-09-21T10:09:24.488Z,44.72
2022-09-21T10:11:53.596Z,46.50
2022-09-21T10:14:23.767Z,45.24
2022-09-21T10:16:52.903Z,49.20
2022-09-21T10:19:24.135Z,47.40
2022-09-21T10:21:58.075Z,47.50
2022-09-21T10:24:29.437Z,46.49
2022-09-21T10:27:04.569Z,45.92
2022-09-21T10:29:43.544Z,45.80
2022-09-21T10:32:23.456Z,44.32
2022-09-21T10:35:15.887Z,42.00
2022-09-21T10:37:45.474Z,41.50
2022-09-21T10:40:27.224Z,41.87
2022-09-21T10:42:58.545Z,41.54
2022-09-21T10:45:27.611Z,40.49
2022-09-21T10:47:57.863Z,42.38
2022-09-21T10:50:29.086Z,41.93
2022-09-21T10:53:01.160Z,42.68
2022-09-21T10:55:31.989Z,44.55
2022-09-21T10:58:00.775Z,43.23
2022-09-21T11:00:38.335Z,43.80
2022-09-21T11:03:34.595Z,41.28
2022-09-21T11:06:06.927Z,39.51
2022-09-21T11:08:39.388Z,39.45
2022-09-21T11:11:26.558Z,42.91
2022-09-21T11:14:01.015Z,40.03
2022-09-21T11:16:34.280Z,42.45
2022-09-21T11:19:15.898Z,43.15
2022-09-21T11:21:48.020Z,41.44
2022-09-21T11:24:25.198Z,38.20
2022-09-21T11:26:59.134Z,39.63
2022-09-21T11:29:32.398Z,38.96
2022-09-21T11:32:13.291Z,38.84
2022-09-21T11:34:59.146Z,38.53
2022-09-21T11:37:39.912Z,38.10
2022-09-21T11:40:21.843Z,35.57
2022-09-21T11:43:01.853Z,37.91
2022-09-21T11:45:50.644Z,37.71
2022-09-21T11:48:29.363Z,38.48
2022-09-21T11:51:08.716Z,36.28
2022-09-21T11:53:46.698Z,37.27
2022-09-21T11:56:35.481Z,33.88
2022-09-21T11:59:18.015Z,32.98
2022-09-21T12:02:01.989Z,33.96
2022-09-21T12:04:43.290Z,37.68
2022-09-21T12:07:27.510Z,40.20
2022-09-21T12:10:11.527Z,35.67
2022-09-21T12:12:44.552Z,35.36
2022-09-21T12:15:21.438Z,36.11
2022-09-21T12:17:58.493Z,35.25
2022-09-21T12:20:35.835Z,33.23
2022-09-21T12:23:09.588Z,31.44
2022-09-21T12:25:41.772Z,30.58
2022-09-21T12:28:17.421Z,29.61
2022-09-21T12:30:51.022Z,28.30
2022-09-21T12:33:23.459Z,30.03
2022-09-21T12:35:56.837Z,32.43
2022-09-21T12:38:29.362Z,34.27
2022-09-21T12:41:05.187Z,35.36
2022-09-21T12:43:39.201Z,36.97
2022-09-21T12:46:14.372Z,35.51
2022-09-21T12:48:42.381Z,35.67
2022-09-21T12:51:16.718Z,34.08
2022-09-21T12:53:50.861Z,34.40
2022-09-21T12:56:30.779Z,35.79
2022-09-21T12:59:11.911Z,36.73
2022-09-21T13:01:46.821Z,35.45
2022-09-21T13:04:28.904Z,34.27
2022-09-21T13:07:30.008Z,35.77
2022-09-21T13:09:58.649Z,35.94
2022-09-21T13:12:30.489Z,34.83
2022-09-21T13:15:03.752Z,36.63
2022-09-21T13:17:34.181Z,36.99
2022-09-21T13:20:07.120Z,35.77
2022-09-21T13:22:37.307Z,35.78
2022-09-21T13:25:09.276Z,32.13
2022-09-21T13:28:01.489Z,31.55
2022-09-21T13:30:40.950Z,32.05
2022-09-21T13:33:40.657Z,35.29
2022-09-21T13:36:31.155Z,36.96
2022-09-21T13:39:14.283Z,39.47
2022-09-21T13:42:03.786Z,41.78
2022-09-21T13:44:42.372Z,43.82
2022-09-21T13:47:11.267Z,42.62
2022-09-21T13:49:55.894Z,43.52
2022-09-21T13:52:31.470Z,43.36
2022-09-21T13:55:01.769Z,41.39
2022-09-21T13:57:36.791Z,41.73
2022-09-21T14:00:28.496Z,39.06
2022-09-21T14:03:00.484Z,39.10
2022-09-21T14:05:34.917Z,40.12
2022-09-21T14:08:04.337Z,41.80
2022-09-21T14:10:36.079Z,40.30
2022-09-21T14:13:07.369Z,39.61
2022-09-21T14:15:40.646Z,39.98
2022-09-21T14:18:21.389Z,39.29
2022-09-21T14:21:18.329Z,38.65
2022-09-21T14:24:20.198Z,40.41
2022-09-21T14:27:02.682Z,39.52
2022-09-21T14:29:40.255Z,39.83
2022-09-21T14:32:16.872Z,39.55
2022-09-21T14:34:48.271Z,38.74
2022-09-21T14:37:27.555Z,36.10
2022-09-21T14:39:55.910Z,37.46
2022-09-21T14:42:27.268Z,37.73
2022-09-21T14:44:57.820Z,37.56
2022-09-21T14:47:51.949Z,37.62
2022-09-21T14:50:31.999Z,37.04
2022-09-21T14:53:29.292Z,38.05
2022-09-21T14:56:10.096Z,38.87
2022-09-21T14:58:49.967Z,39.16
2022-09-21T15:01:37.277Z,38.73
2022-09-21T15:04:24.292Z,38.75
2022-09-21T15:07:18.532Z,40.09
2022-09-21T15:10:21.823Z,39.23
2022-09-21T15:12:57.244Z,39.58
2022-09-21T15:15:34.672Z,37.69
2022-09-21T15:18:03.752Z,39.54
2022-09-21T15:20:33.064Z,40.25
2022-09-21T15:23:02.051Z,40.42
2022-09-21T15:25:34.396Z,40.39
2022-09-21T15:28:03.901Z,39.24
2022-09-21T15:30:34.060Z,38.86
2022-09-21T15:33:02.987Z,38.11
2022-09-21T15:35:32.528Z,38.14
2022-09-21T15:38:01.764Z,38.73
2022-09-21T15:40:33.160Z,40.68
2022-09-21T15:43:04.409Z,42.80
2022-09-21T15:45:37.189Z,43.30
2022-09-21T15:48:10.043Z,41.77
2022-09-21T15:50:38.984Z,40.97
2022-09-21T15:53:10.513Z,41.07
2022-09-21T15:55:39.389Z,41.86
2022-09-21T15:58:20.754Z,40.93
2022-09-21T16:00:54.931Z,40.60
2022-09-21T16:03:25.833Z,42.76
2022-09-21T16:05:55.374Z,41.36
2022-09-21T16:08:33.009Z,41.66
2022-09-21T16:11:14.997Z,40.26
2022-09-21T16:14:00.967Z,40.20
2022-09-21T16:16:28.778Z,41.20
2022-09-21T16:18:59.906Z,42.09
2022-09-21T16:21:29.147Z,43.05
2022-09-21T16:23:58.617Z,44.54
2022-09-21T16:26:32.194Z,47.79
2022-09-21T16:29:18.947Z,48.11
2022-09-21T16:31:50.169Z,48.86
2022-09-21T16:34:36.727Z,49.95
2022-09-21T16:37:24.162Z,49.09
2022-09-21T16:39:52.858Z,50.06
2022-09-21T16:42:23.110Z,51.26
2022-09-21T16:44:51.418Z,53.52
2022-09-21T16:47:25.158Z,54.78
2022-09-21T16:49:56.392Z,54.66
2022-09-21T16:52:24.506Z,56.13
2022-09-21T16:54:52.288Z,57.15
2022-09-21T16:57:21.356Z,57.16
2022-09-21T16:59:50.259Z,59.21
2022-09-21T17:02:18.834Z,60.31
2022-09-21T17:04:47.872Z,63.68
2022-09-21T17:07:16.652Z,64.63
2022-09-21T17:09:47.455Z,67.47
2022-09-21T17:12:17.485Z,70.36
2022-09-21T17:14:47.281Z,74.99
2022-09-21T17:17:18.641Z,77.58
2022-09-21T17:19:49.649Z,79.65
2022-09-21T17:22:18.061Z,79.17
2022-09-21T17:24:50.931Z,80.31
2022-09-21T17:27:21.366Z,81.94
2022-09-21T17:29:51.106Z,85.27
2022-09-21T17:32:20.654Z,87.33
2022-09-21T17:34:53.198Z,89.31
2022-09-21T17:37:21.772Z,92.56
2022-09-21T17:39:49.814Z,93.82
2022-09-21T17:42:21.093Z,99.42
2022-09-21T17:45:04.982Z,100.00
2022-09-21T17:47:33.947Z,100.00
2022-09-21T17:50:15.416Z,100.00
2022-09-21T17:53:02.267Z,100.00
2022-09-21T17:55:30.895Z,100.00
2022-09-21T17:58:09.843Z,100.00
2022-09-21T18:00:50.396Z,100.00
2022-09-21T18:03:22.737Z,100.00
2022-09-21T18:05:52.682Z,100.00
2022-09-21T18:08:20.539Z,100.00
2022-09-21T18:11:04.247Z,100.00
2022-09-21T18:13:42.513Z,100.00
2022-09-21T18:16:22.710Z,100.00
2022-09-21T18:18:59.454Z,100.00
2022-09-21T18:21:27.995Z,100.00
2022-09-21T18:24:15.383Z,100.00
2022-09-21T18:26:43.684Z,100.00
2022-09-21T18:29:38.919Z,100.00
2022-09-21T18:32:25.231Z,100.00
2022-09-21T18:35:18.344Z,100.00
2022-09-21T18:37:56.682Z,100.00
2022-09-21T18:40:32.972Z,100.00
2022-09-21T18:43:11.667Z,100.00
2022-09-21T18:45:43.751Z,100.00
2022-09-21T18:48:23.415Z,100.00
2022-09-21T18:50:57.719Z,100.00
2022-09-21T18:53:33.851Z,100.00
2022-09-21T18:56:02.257Z,100.00
2022-09-21T18:58:30.924Z,100.00
2022-09-21T19:01:00.249Z,100.00
2022-09-21T19:03:29.904Z,100.00
2022-09-21T19:06:16.097Z,100.00
2022-09-21T19:08:50.272Z,100.00
2022-09-21T19:11:27.414Z,100.00
2022-09-21T19:14:01.718Z,100.00
2022-09-21T19:16:34.854Z,100.00
2022-09-21T19:19:15.544Z,100.00
2022-09-21T19:21:47.647Z,100.00
2022-09-21T19:24:23.991Z,100.00
2022-09-21T19:27:11.953Z,100.00
2022-09-21T19:29:50.185Z,100.00
2022-09-21T19:32:19.439Z,100.00
2022-09-21T19:34:48.550Z,100.00
2022-09-21T19:37:16.206Z,100.00
2022-09-21T19:39:44.143Z,100.00
2022-09-21T19:42:29.907Z,100.00
2022-09-21T19:45:13.498Z,100.00
2022-09-21T19:47:48.084Z,100.00
2022-09-21T19:50:19.564Z,100.00
2022-09-21T19:52:47.692Z,100.00
2022-09-21T19:55:35.065Z,100.00
2022-09-21T19:58:20.752Z,100.00
2022-09-21T20:00:52.885Z,100.00
2022-09-21T20:03:31.237Z,100.00
2022-09-21T20:06:05.935Z,100.00
2022-09-21T20:08:40.192Z,100.00
2022-09-21T20:11:12.607Z,100.00
2022-09-21T20:13:53.014Z,100.00
2022-09-21T20:16:37.187Z,100.00
2022-09-21T20:19:13.119Z,100.00
2022-09-21T20:21:44.258Z,100.00
2022-09-21T20:24:20.293Z,100.00
2022-09-21T20:26:49.970Z,100.00
2022-09-21T20:29:18.163Z,100.00
2022-09-21T20:31:47.280Z,100.00
2022-09-21T20:34:15.477Z,100.00
2022-09-21T20:36:44.250Z,100.00
2022-09-21T20:39:11.758Z,100.00
2022-09-21T20:41:39.532Z,100.00
2022-09-21T20:44:07.021Z,100.00
2022-09-21T20:46:34.459Z,100.00
2022-09-21T20:49:04.678Z,100.00
2022-09-21T20:51:33.838Z,100.00
2022-09-21T20:54:03.059Z,100.00
2022-09-21T20:56:31.300Z,100.00
2022-09-21T20:58:59.267Z,100.00
2022-09-21T21:01:26.863Z,100.00
2022-09-21T21:04:01.474Z,100.00
2022-09-21T21:06:31.112Z,100.00
2022-09-21T21:08:59.068Z,100.00
2022-09-21T21:11:28.420Z,100.00
2022-09-21T21:13:56.731Z,100.00
2022-09-21T21:16:24.577Z,100.00
2022-09-21T21:18:52.099Z,100.00
2022-09-21T21:21:19.530Z,100.00
2022-09-21T21:24:07.690Z,100.00
2022-09-21T21:26:57.765Z,100.00
2022-09-21T21:29:24.491Z,100.00
2022-09-21T21:31:51.997Z,100.00
2022-09-21T21:34:19.479Z,100.00
2022-09-21T21:36:46.974Z,100.00
2022-09-21T21:39:14.521Z,100.00
2022-09-21T21:41:43.671Z,100.00
2022-09-21T21:44:11.393Z,100.00
2022-09-21T21:46:39.207Z,100.00
2022-09-21T21:49:07.014Z,100.00
2022-09-21T21:51:34.541Z,100.00
2022-09-21T21:54:02.330Z,100.00
2022-09-21T21:56:29.804Z,100.00
2022-09-21T21:58:58.648Z,100.00
2022-09-21T22:01:28.049Z,100.00
2022-09-21T22:03:57.105Z,100.00
2022-09-21T22:06:25.153Z,100.00
2022-09-21T22:08:53.260Z,100.00
2022-09-21T22:11:22.190Z,100.00
2022-09-21T22:13:50.334Z,100.00
2022-09-21T22:16:22.010Z,100.00
2022-09-21T22:18:50.692Z,100.00
2022-09-21T22:21:21.482Z,100.00
2022-09-21T22:23:53.038Z,100.00
2022-09-21T22:26:21.588Z,100.00
2022-09-21T22:28:51.128Z,100.00
2022-09-21T22:31:21.625Z,100.00
2022-09-21T22:33:49.870Z,100.00
2022-09-21T22:36:19.426Z,100.00
2022-09-21T22:38:47.905Z,100.00
2022-09-21T22:41:17.877Z,100.00
2022-09-21T22:43:46.177Z,100.00
2022-09-21T22:46:14.294Z,100.00
2022-09-21T22:48:43.622Z,100.00
2022-09-21T22:51:11.442Z,100.00
2022-09-21T22:53:39.508Z,100.00
2022-09-21T22:56:09.381Z,100.00
2022-09-21T22:58:39.919Z,100.00
2022-09-21T23:01:10.366Z,100.00
2022-09-21T23:03:39.029Z,100.00
2022-09-21T23:06:10.239Z,100.00
2022-09-21T23:08:38.881Z,100.00
2022-09-21T23:11:08.016Z,100.00
2022-09-21T23:13:35.537Z,100.00
2022-09-21T23:16:04.625Z,100.00
2022-09-21T23:18:32.751Z,100.00
2022-09-21T23:21:01.492Z,100.00
2022-09-21T23:23:31.316Z,100.00
2022-09-21T23:26:03.562Z,100.00
2022-09-21T23:28:31.062Z,100.00
2022-09-21T23:31:00.275Z,100.00
2022-09-21T23:33:32.273Z,100.00
2022-09-21T23:36:00.097Z,100.00
2022-09-21T23:38:29.321Z,100.00
2022-09-21T23:41:06.453Z,100.00
2022-09-21T23:43:35.115Z,100.00
2022-09-21T23:46:02.930Z,100.00
2022-09-21T23:48:30.881Z,100.00
2022-09-21T23:50:59.393Z,100.00
2022-09-21T23:53:28.357Z,100.00
2022-09-21T23:55:57.457Z,100.00
2022-09-21T23:58:27.414Z,100.00
